Terminal Aerodrome Forecast
Issued by NWS

Home | Current Version | Previous Version | Text Only | Print | Product List | Glossary On
Versions: 1 2 3 4 5 6 7 8 9 10 11 12 13
000
FTUS46 KPDT 170500
TAFYKM
TAF
KYKM 170535Z 1706/1806 27011KT P6SM VCSH BKN070 OVC100
     FM171200 25010KT P6SM BKN050 OVC070
      TEMPO 1714/1718 -RA BKN040 OVC070
     FM171800 25012KT P6SM -RA BKN030 OVC040
     FM172200 25012KT P6SM SCT030 BKN050
     FM180400 28014G24KT P6SM SCT050 BKN100=

USA.gov is the U.S. government's official web portal to all federal, state and local government web resources and services.